createdAt,value
2022-10-07T00:00:10.119Z,7.70
2022-10-07T00:05:12.098Z,5.22
2022-10-07T00:10:13.715Z,6.45
2022-10-07T00:15:15.456Z,4.07
2022-10-07T00:20:17.131Z,21.05
2022-10-07T00:25:19.104Z,3.95
2022-10-07T00:30:20.899Z,8.27
2022-10-07T00:35:22.499Z,4.68
2022-10-07T00:40:27.867Z,5.28
2022-10-07T00:45:30.160Z,4.53
2022-10-07T00:50:31.984Z,7.03
2022-10-07T00:55:34.175Z,4.85
2022-10-07T01:00:37.662Z,4.88
2022-10-07T01:05:39.607Z,6.15
2022-10-07T01:11:17.681Z,8.10
2022-10-07T01:16:43.048Z,7.80
2022-10-07T01:22:07.965Z,5.80
2022-10-07T01:27:16.629Z,6.15
2022-10-07T01:32:33.228Z,6.70
2022-10-07T01:37:41.646Z,4.28
2022-10-07T01:42:45.790Z,4.80
2022-10-07T01:47:49.094Z,3.95
2022-10-07T01:53:18.893Z,8.70
2022-10-07T02:04:04.821Z,21.42
2022-10-07T02:09:37.332Z,14.10
2022-10-07T02:14:46.262Z,7.20
2022-10-07T02:19:56.824Z,9.00
2022-10-07T02:25:00.379Z,4.45
2022-10-07T02:30:12.293Z,6.13
2022-10-07T02:35:24.382Z,9.38
2022-10-07T02:40:35.736Z,5.47
2022-10-07T02:45:46.203Z,7.40
2022-10-07T02:50:53.262Z,5.90
2022-10-07T02:55:57.247Z,6.55
2022-10-07T03:01:01.456Z,27.35
2022-10-07T03:06:04.985Z,5.57
2022-10-07T03:11:08.561Z,11.40
2022-10-07T03:16:10.523Z,9.15
2022-10-07T03:21:13.189Z,4.68
2022-10-07T03:26:19.245Z,4.90
2022-10-07T03:31:22.426Z,3.42
2022-10-07T03:36:27.937Z,3.70
2022-10-07T03:41:29.986Z,5.20
2022-10-07T03:46:35.161Z,3.17
2022-10-07T03:51:37.007Z,4.65
2022-10-07T03:56:41.269Z,6.00
2022-10-07T04:01:43.372Z,3.50
2022-10-07T04:06:46.034Z,4.50
2022-10-07T04:11:49.605Z,4.57
2022-10-07T04:16:51.407Z,8.00
2022-10-07T04:21:53.073Z,10.52
2022-10-07T04:26:55.173Z,7.20
2022-10-07T04:31:58.270Z,7.05
2022-10-07T04:37:01.511Z,5.55
2022-10-07T04:42:05.262Z,5.75
2022-10-07T04:47:07.786Z,7.25
2022-10-07T04:52:14.041Z,5.78
2022-10-07T04:57:18.489Z,4.63
2022-10-07T05:02:22.574Z,4.40
2022-10-07T05:07:24.649Z,6.70
2022-10-07T05:12:29.188Z,4.45
2022-10-07T05:17:32.604Z,3.25
2022-10-07T05:22:34.529Z,3.60
2022-10-07T05:27:36.837Z,2.85
2022-10-07T05:32:38.798Z,4.28
2022-10-07T05:37:40.819Z,2.70
2022-10-07T05:42:42.936Z,3.22
2022-10-07T05:47:45.886Z,4.80
2022-10-07T05:52:48.655Z,13.80
2022-10-07T05:57:50.505Z,5.35
2022-10-07T06:02:52.758Z,10.38
2022-10-07T06:07:54.973Z,40.85
2022-10-07T06:13:08.693Z,53.13
2022-10-07T06:18:12.443Z,7.47
2022-10-07T06:23:15.669Z,5.55
2022-10-07T06:28:17.893Z,5.70
2022-10-07T06:33:20.322Z,9.40
2022-10-07T06:38:24.397Z,17.08
2022-10-07T06:43:26.978Z,15.25
2022-10-07T06:48:41.191Z,15.65
2022-10-07T06:53:43.729Z,19.25
2022-10-07T06:58:45.827Z,40.05
2022-10-07T07:03:50.498Z,22.10
2022-10-07T07:08:55.417Z,31.52
2022-10-07T07:13:58.030Z,36.25
2022-10-07T07:19:03.512Z,29.58
2022-10-07T07:24:08.118Z,30.55
2022-10-07T07:29:12.788Z,30.23
2022-10-07T07:34:22.610Z,30.63
2022-10-07T07:39:25.480Z,30.77
2022-10-07T07:44:37.238Z,28.20
2022-10-07T07:49:42.808Z,27.02
2022-10-07T07:54:49.014Z,25.80
2022-10-07T07:59:51.026Z,28.33
2022-10-07T08:04:54.046Z,25.75
2022-10-07T08:09:57.711Z,31.48
2022-10-07T08:14:59.445Z,29.85
2022-10-07T08:20:01.976Z,28.40
2022-10-07T08:25:06.106Z,31.92
2022-10-07T08:30:10.136Z,31.27
2022-10-07T08:35:12.974Z,28.48
2022-10-07T08:40:17.700Z,32.08
2022-10-07T08:45:31.727Z,33.47
2022-10-07T08:50:49.673Z,32.33
2022-10-07T08:56:19.878Z,25.90
2022-10-07T09:01:40.164Z,29.02
2022-10-07T09:06:50.299Z,25.58
2022-10-07T09:11:53.757Z,26.30
2022-10-07T09:17:01.911Z,27.83
2022-10-07T09:22:12.050Z,29.58
2022-10-07T09:27:16.626Z,25.33
2022-10-07T09:32:19.823Z,24.90
2022-10-07T09:37:27.543Z,25.88
2022-10-07T09:42:45.942Z,25.05
2022-10-07T09:47:54.105Z,25.55
2022-10-07T09:52:57.015Z,24.42
2022-10-07T09:58:02.162Z,26.17
2022-10-07T14:56:43.387Z,7.65
2022-10-07T15:01:58.889Z,15.70
2022-10-07T15:36:29.637Z,10.02
2022-10-07T15:41:56.289Z,8.80
2022-10-07T15:47:28.012Z,9.95
2022-10-07T15:52:39.822Z,8.05
2022-10-07T16:38:04.816Z,7.88
2022-10-07T17:11:57.031Z,7.38
2022-10-07T18:36:53.820Z,7.75
2022-10-07T19:12:35.318Z,8.90
2022-10-07T19:36:51.142Z,8.35
2022-10-07T20:06:12.399Z,15.25
2022-10-07T20:48:07.567Z,16.33
2022-10-07T20:53:15.854Z,9.93
2022-10-07T20:58:32.946Z,10.27
2022-10-07T21:08:58.262Z,15.80
2022-10-07T21:14:00.434Z,13.50
2022-10-07T21:19:02.310Z,14.57
2022-10-07T21:24:22.428Z,12.70
2022-10-07T21:29:24.629Z,12.85
2022-10-07T22:36:30.780Z,12.00
2022-10-07T22:41:32.596Z,12.70
2022-10-07T22:46:35.054Z,14.98
2022-10-07T22:51:40.455Z,10.82
2022-10-07T22:56:42.280Z,12.35
2022-10-07T23:01:44.183Z,18.90
2022-10-07T23:07:01.234Z,13.73
2022-10-07T23:12:06.255Z,14.75
2022-10-07T23:17:09.183Z,11.65
2022-10-07T23:22:13.790Z,13.32
2022-10-07T23:27:18.111Z,12.10
2022-10-07T23:32:32.745Z,15.88
2022-10-07T23:37:47.995Z,10.90
2022-10-07T23:42:49.981Z,11.20
2022-10-07T23:47:51.928Z,13.75
2022-10-07T23:53:13.475Z,11.25
2022-10-07T23:58:23.890Z,10.02
